sensor_id;sensor_type;location;lat;lon;timestamp;P1;durP1;ratioP1;P2;durP2;ratioP2
7573;SDS011;3828;48.922;9.116;2022-08-21T00:00:28;2.97;;;1.93;;
7573;SDS011;3828;48.922;9.116;2022-08-21T00:02:57;2.50;;;1.63;;
7573;SDS011;3828;48.922;9.116;2022-08-21T00:05:26;1.73;;;1.63;;
7573;SDS011;3828;48.922;9.116;2022-08-21T00:07:55;2.97;;;2.00;;
7573;SDS011;3828;48.922;9.116;2022-08-21T00:10:22;3.80;;;1.90;;
7573;SDS011;3828;48.922;9.116;2022-08-21T00:12:50;3.27;;;2.10;;
7573;SDS011;3828;48.922;9.116;2022-08-21T00:15:18;4.50;;;2.53;;
7573;SDS011;3828;48.922;9.116;2022-08-21T00:17:47;2.10;;;1.90;;
7573;SDS011;3828;48.922;9.116;2022-08-21T00:20:15;3.50;;;2.23;;
7573;SDS011;3828;48.922;9.116;2022-08-21T00:22:43;2.57;;;1.83;;
7573;SDS011;3828;48.922;9.116;2022-08-21T00:25:12;2.57;;;2.17;;
7573;SDS011;3828;48.922;9.116;2022-08-21T00:27:40;3.53;;;2.50;;
7573;SDS011;3828;48.922;9.116;2022-08-21T00:30:08;1.90;;;1.80;;
7573;SDS011;3828;48.922;9.116;2022-08-21T00:32:37;2.50;;;2.10;;
7573;SDS011;3828;48.922;9.116;2022-08-21T00:35:05;2.13;;;1.90;;
7573;SDS011;3828;48.922;9.116;2022-08-21T00:37:33;2.83;;;2.30;;
7573;SDS011;3828;48.922;9.116;2022-08-21T00:40:00;2.23;;;2.13;;
7573;SDS011;3828;48.922;9.116;2022-08-21T00:42:29;2.33;;;2.00;;
7573;SDS011;3828;48.922;9.116;2022-08-21T00:44:55;2.77;;;2.27;;
7573;SDS011;3828;48.922;9.116;2022-08-21T00:47:23;3.00;;;2.30;;
7573;SDS011;3828;48.922;9.116;2022-08-21T00:49:50;3.87;;;2.67;;
7573;SDS011;3828;48.922;9.116;2022-08-21T00:52:17;4.87;;;2.30;;
7573;SDS011;3828;48.922;9.116;2022-08-21T00:54:48;2.77;;;2.23;;
7573;SDS011;3828;48.922;9.116;2022-08-21T00:57:19;2.07;;;1.87;;
7573;SDS011;3828;48.922;9.116;2022-08-21T00:59:51;2.33;;;2.17;;
7573;SDS011;3828;48.922;9.116;2022-08-21T01:02:19;2.57;;;2.00;;
7573;SDS011;3828;48.922;9.116;2022-08-21T01:04:46;2.73;;;2.10;;
7573;SDS011;3828;48.922;9.116;2022-08-21T01:07:14;3.77;;;2.87;;
7573;SDS011;3828;48.922;9.116;2022-08-21T01:09:41;2.47;;;1.97;;
7573;SDS011;3828;48.922;9.116;2022-08-21T01:12:09;2.87;;;2.57;;
7573;SDS011;3828;48.922;9.116;2022-08-21T01:14:36;3.53;;;2.33;;
7573;SDS011;3828;48.922;9.116;2022-08-21T01:17:05;4.53;;;2.10;;
7573;SDS011;3828;48.922;9.116;2022-08-21T01:19:33;3.37;;;2.10;;
7573;SDS011;3828;48.922;9.116;2022-08-21T01:22:02;2.97;;;2.27;;
7573;SDS011;3828;48.922;9.116;2022-08-21T01:24:29;3.00;;;2.60;;
7573;SDS011;3828;48.922;9.116;2022-08-21T01:26:56;3.13;;;2.40;;
7573;SDS011;3828;48.922;9.116;2022-08-21T01:29:26;2.90;;;2.10;;
7573;SDS011;3828;48.922;9.116;2022-08-21T01:31:58;2.67;;;2.00;;
7573;SDS011;3828;48.922;9.116;2022-08-21T01:34:26;4.07;;;2.53;;
7573;SDS011;3828;48.922;9.116;2022-08-21T01:36:52;3.97;;;2.40;;
7573;SDS011;3828;48.922;9.116;2022-08-21T01:39:21;2.63;;;2.10;;
7573;SDS011;3828;48.922;9.116;2022-08-21T01:41:47;2.50;;;2.30;;
7573;SDS011;3828;48.922;9.116;2022-08-21T01:44:14;3.90;;;2.23;;
7573;SDS011;3828;48.922;9.116;2022-08-21T01:46:41;4.07;;;2.30;;
7573;SDS011;3828;48.922;9.116;2022-08-21T01:49:08;2.67;;;2.30;;
7573;SDS011;3828;48.922;9.116;2022-08-21T01:51:35;4.77;;;2.33;;
7573;SDS011;3828;48.922;9.116;2022-08-21T01:54:01;3.43;;;2.07;;
7573;SDS011;3828;48.922;9.116;2022-08-21T01:56:31;3.13;;;2.57;;
7573;SDS011;3828;48.922;9.116;2022-08-21T01:59:02;4.00;;;2.57;;
7573;SDS011;3828;48.922;9.116;2022-08-21T02:01:29;2.60;;;2.40;;
7573;SDS011;3828;48.922;9.116;2022-08-21T02:03:56;2.30;;;2.10;;
7573;SDS011;3828;48.922;9.116;2022-08-21T02:06:24;4.53;;;2.53;;
7573;SDS011;3828;48.922;9.116;2022-08-21T02:08:51;2.73;;;2.53;;
7573;SDS011;3828;48.922;9.116;2022-08-21T02:11:18;3.50;;;2.47;;
7573;SDS011;3828;48.922;9.116;2022-08-21T02:13:46;3.00;;;2.33;;
7573;SDS011;3828;48.922;9.116;2022-08-21T02:16:13;3.50;;;2.70;;
7573;SDS011;3828;48.922;9.116;2022-08-21T02:18:40;4.30;;;2.50;;
7573;SDS011;3828;48.922;9.116;2022-08-21T02:21:07;2.67;;;2.47;;
7573;SDS011;3828;48.922;9.116;2022-08-21T02:23:34;3.03;;;2.77;;
7573;SDS011;3828;48.922;9.116;2022-08-21T02:26:02;3.00;;;2.60;;
7573;SDS011;3828;48.922;9.116;2022-08-21T02:28:31;3.03;;;2.50;;
7573;SDS011;3828;48.922;9.116;2022-08-21T02:31:01;3.13;;;2.57;;
7573;SDS011;3828;48.922;9.116;2022-08-21T02:33:29;4.27;;;2.40;;
7573;SDS011;3828;48.922;9.116;2022-08-21T02:35:56;2.80;;;2.47;;
7573;SDS011;3828;48.922;9.116;2022-08-21T02:38:24;5.93;;;3.10;;
7573;SDS011;3828;48.922;9.116;2022-08-21T02:40:53;4.27;;;2.73;;
7573;SDS011;3828;48.922;9.116;2022-08-21T02:43:21;3.20;;;2.60;;
7573;SDS011;3828;48.922;9.116;2022-08-21T02:45:50;3.67;;;2.87;;
7573;SDS011;3828;48.922;9.116;2022-08-21T02:48:20;5.93;;;3.00;;
7573;SDS011;3828;48.922;9.116;2022-08-21T02:50:50;4.60;;;2.53;;
7573;SDS011;3828;48.922;9.116;2022-08-21T02:53:19;3.20;;;2.60;;
7573;SDS011;3828;48.922;9.116;2022-08-21T02:55:47;3.30;;;2.50;;
7573;SDS011;3828;48.922;9.116;2022-08-21T02:58:16;5.67;;;2.83;;
7573;SDS011;3828;48.922;9.116;2022-08-21T03:00:45;3.20;;;2.50;;
7573;SDS011;3828;48.922;9.116;2022-08-21T03:03:13;4.07;;;2.70;;
7573;SDS011;3828;48.922;9.116;2022-08-21T03:05:42;4.03;;;2.30;;
7573;SDS011;3828;48.922;9.116;2022-08-21T03:08:10;2.83;;;2.60;;
7573;SDS011;3828;48.922;9.116;2022-08-21T03:10:40;2.67;;;2.47;;
7573;SDS011;3828;48.922;9.116;2022-08-21T03:13:09;4.13;;;2.30;;
7573;SDS011;3828;48.922;9.116;2022-08-21T03:15:36;3.33;;;2.93;;
7573;SDS011;3828;48.922;9.116;2022-08-21T03:18:03;4.23;;;2.80;;
7573;SDS011;3828;48.922;9.116;2022-08-21T03:20:30;3.70;;;2.50;;
7573;SDS011;3828;48.922;9.116;2022-08-21T03:22:59;3.77;;;2.73;;
7573;SDS011;3828;48.922;9.116;2022-08-21T03:25:28;3.13;;;2.57;;
7573;SDS011;3828;48.922;9.116;2022-08-21T03:27:56;3.47;;;2.87;;
7573;SDS011;3828;48.922;9.116;2022-08-21T03:30:23;3.00;;;2.70;;
7573;SDS011;3828;48.922;9.116;2022-08-21T03:32:50;3.00;;;2.80;;
7573;SDS011;3828;48.922;9.116;2022-08-21T03:35:18;3.00;;;2.80;;
7573;SDS011;3828;48.922;9.116;2022-08-21T03:37:45;5.30;;;3.00;;
7573;SDS011;3828;48.922;9.116;2022-08-21T03:40:15;3.60;;;2.93;;
7573;SDS011;3828;48.922;9.116;2022-08-21T03:42:43;4.00;;;3.33;;
7573;SDS011;3828;48.922;9.116;2022-08-21T03:45:12;3.37;;;2.70;;
7573;SDS011;3828;48.922;9.116;2022-08-21T03:47:49;3.30;;;2.80;;
7573;SDS011;3828;48.922;9.116;2022-08-21T03:50:17;3.83;;;2.97;;
7573;SDS011;3828;48.922;9.116;2022-08-21T03:52:44;4.17;;;2.93;;
7573;SDS011;3828;48.922;9.116;2022-08-21T03:55:11;3.77;;;3.10;;
7573;SDS011;3828;48.922;9.116;2022-08-21T03:57:39;3.07;;;2.87;;
7573;SDS011;3828;48.922;9.116;2022-08-21T04:00:07;3.20;;;2.90;;
7573;SDS011;3828;48.922;9.116;2022-08-21T04:02:36;3.70;;;2.80;;
7573;SDS011;3828;48.922;9.116;2022-08-21T04:05:04;2.70;;;2.50;;
7573;SDS011;3828;48.922;9.116;2022-08-21T04:07:32;2.73;;;2.47;;
7573;SDS011;3828;48.922;9.116;2022-08-21T04:09:59;4.20;;;3.20;;
7573;SDS011;3828;48.922;9.116;2022-08-21T04:12:25;5.60;;;3.53;;
7573;SDS011;3828;48.922;9.116;2022-08-21T04:14:54;7.20;;;3.50;;
7573;SDS011;3828;48.922;9.116;2022-08-21T04:17:20;4.13;;;3.47;;
7573;SDS011;3828;48.922;9.116;2022-08-21T04:19:51;3.73;;;3.43;;
7573;SDS011;3828;48.922;9.116;2022-08-21T04:22:17;4.13;;;3.10;;
7573;SDS011;3828;48.922;9.116;2022-08-21T04:24:44;3.67;;;2.90;;
7573;SDS011;3828;48.922;9.116;2022-08-21T04:27:11;7.40;;;3.87;;
7573;SDS011;3828;48.922;9.116;2022-08-21T04:29:38;3.20;;;3.00;;
7573;SDS011;3828;48.922;9.116;2022-08-21T04:32:06;3.97;;;3.07;;
7573;SDS011;3828;48.922;9.116;2022-08-21T04:34:33;5.43;;;2.97;;
7573;SDS011;3828;48.922;9.116;2022-08-21T04:36:59;4.07;;;3.07;;
7573;SDS011;3828;48.922;9.116;2022-08-21T04:39:26;5.13;;;3.80;;
7573;SDS011;3828;48.922;9.116;2022-08-21T04:41:53;3.00;;;2.80;;
7573;SDS011;3828;48.922;9.116;2022-08-21T04:44:20;3.37;;;3.07;;
7573;SDS011;3828;48.922;9.116;2022-08-21T04:46:46;3.40;;;2.87;;
7573;SDS011;3828;48.922;9.116;2022-08-21T04:49:14;5.03;;;3.10;;
7573;SDS011;3828;48.922;9.116;2022-08-21T04:51:41;5.40;;;2.90;;
7573;SDS011;3828;48.922;9.116;2022-08-21T04:54:09;6.53;;;3.00;;
7573;SDS011;3828;48.922;9.116;2022-08-21T04:56:40;3.47;;;3.03;;
7573;SDS011;3828;48.922;9.116;2022-08-21T04:59:11;6.10;;;3.30;;
7573;SDS011;3828;48.922;9.116;2022-08-21T05:01:43;3.70;;;3.27;;
7573;SDS011;3828;48.922;9.116;2022-08-21T05:04:11;3.20;;;3.00;;
7573;SDS011;3828;48.922;9.116;2022-08-21T05:06:42;5.53;;;3.60;;
7573;SDS011;3828;48.922;9.116;2022-08-21T05:09:12;4.07;;;3.17;;
7573;SDS011;3828;48.922;9.116;2022-08-21T05:11:40;4.10;;;3.33;;
7573;SDS011;3828;48.922;9.116;2022-08-21T05:14:07;3.67;;;3.37;;
7573;SDS011;3828;48.922;9.116;2022-08-21T05:16:34;5.43;;;3.10;;
7573;SDS011;3828;48.922;9.116;2022-08-21T05:19:01;3.63;;;3.30;;
7573;SDS011;3828;48.922;9.116;2022-08-21T05:21:28;4.40;;;3.37;;
7573;SDS011;3828;48.922;9.116;2022-08-21T05:23:56;3.47;;;2.83;;
7573;SDS011;3828;48.922;9.116;2022-08-21T05:26:23;3.40;;;3.17;;
7573;SDS011;3828;48.922;9.116;2022-08-21T05:28:50;4.30;;;3.43;;
7573;SDS011;3828;48.922;9.116;2022-08-21T05:31:17;3.87;;;3.57;;
7573;SDS011;3828;48.922;9.116;2022-08-21T05:33:43;3.47;;;3.17;;
7573;SDS011;3828;48.922;9.116;2022-08-21T05:36:12;4.27;;;3.87;;
7573;SDS011;3828;48.922;9.116;2022-08-21T05:38:39;3.23;;;3.00;;
7573;SDS011;3828;48.922;9.116;2022-08-21T05:41:07;4.47;;;3.10;;
7573;SDS011;3828;48.922;9.116;2022-08-21T05:43:34;3.60;;;3.03;;
7573;SDS011;3828;48.922;9.116;2022-08-21T05:46:01;3.80;;;3.30;;
7573;SDS011;3828;48.922;9.116;2022-08-21T05:48:29;3.97;;;3.47;;
7573;SDS011;3828;48.922;9.116;2022-08-21T05:50:56;4.20;;;3.40;;
7573;SDS011;3828;48.922;9.116;2022-08-21T05:53:24;4.37;;;3.60;;
7573;SDS011;3828;48.922;9.116;2022-08-21T05:55:51;3.83;;;3.00;;
7573;SDS011;3828;48.922;9.116;2022-08-21T05:58:20;3.97;;;3.50;;
7573;SDS011;3828;48.922;9.116;2022-08-21T06:00:48;5.27;;;3.10;;
7573;SDS011;3828;48.922;9.116;2022-08-21T06:03:17;6.63;;;3.80;;
7573;SDS011;3828;48.922;9.116;2022-08-21T06:05:46;4.97;;;3.20;;
7573;SDS011;3828;48.922;9.116;2022-08-21T06:08:13;4.53;;;4.13;;
7573;SDS011;3828;48.922;9.116;2022-08-21T06:10:41;3.23;;;2.93;;
7573;SDS011;3828;48.922;9.116;2022-08-21T06:13:08;3.73;;;3.40;;
7573;SDS011;3828;48.922;9.116;2022-08-21T06:15:36;3.10;;;2.90;;
7573;SDS011;3828;48.922;9.116;2022-08-21T06:18:03;4.73;;;3.47;;
7573;SDS011;3828;48.922;9.116;2022-08-21T06:20:30;3.63;;;3.23;;
7573;SDS011;3828;48.922;9.116;2022-08-21T06:22:57;5.20;;;3.77;;
7573;SDS011;3828;48.922;9.116;2022-08-21T06:25:24;6.63;;;3.53;;
7573;SDS011;3828;48.922;9.116;2022-08-21T06:27:51;4.00;;;3.57;;
7573;SDS011;3828;48.922;9.116;2022-08-21T06:30:18;3.73;;;3.30;;
7573;SDS011;3828;48.922;9.116;2022-08-21T06:32:47;4.60;;;3.20;;
7573;SDS011;3828;48.922;9.116;2022-08-21T06:35:13;6.00;;;3.10;;
7573;SDS011;3828;48.922;9.116;2022-08-21T06:37:40;3.83;;;3.07;;
7573;SDS011;3828;48.922;9.116;2022-08-21T06:40:10;5.80;;;2.80;;
7573;SDS011;3828;48.922;9.116;2022-08-21T06:42:37;3.13;;;2.83;;
7573;SDS011;3828;48.922;9.116;2022-08-21T06:45:05;5.30;;;2.97;;
7573;SDS011;3828;48.922;9.116;2022-08-21T06:47:32;4.07;;;3.13;;
7573;SDS011;3828;48.922;9.116;2022-08-21T06:50:00;3.87;;;2.60;;
7573;SDS011;3828;48.922;9.116;2022-08-21T06:52:27;4.37;;;3.67;;
7573;SDS011;3828;48.922;9.116;2022-08-21T06:54:54;3.80;;;3.37;;
7573;SDS011;3828;48.922;9.116;2022-08-21T06:57:21;3.63;;;2.67;;
7573;SDS011;3828;48.922;9.116;2022-08-21T06:59:47;4.53;;;2.87;;
7573;SDS011;3828;48.922;9.116;2022-08-21T07:02:14;5.20;;;2.83;;
7573;SDS011;3828;48.922;9.116;2022-08-21T07:04:41;6.13;;;3.50;;
7573;SDS011;3828;48.922;9.116;2022-08-21T07:07:09;4.73;;;2.90;;
7573;SDS011;3828;48.922;9.116;2022-08-21T07:09:38;7.33;;;2.77;;
7573;SDS011;3828;48.922;9.116;2022-08-21T07:12:06;3.30;;;2.93;;
7573;SDS011;3828;48.922;9.116;2022-08-21T07:14:33;4.53;;;3.07;;
7573;SDS011;3828;48.922;9.116;2022-08-21T07:17:00;4.47;;;2.67;;
7573;SDS011;3828;48.922;9.116;2022-08-21T07:19:26;3.77;;;3.47;;
7573;SDS011;3828;48.922;9.116;2022-08-21T07:21:54;2.93;;;2.60;;
7573;SDS011;3828;48.922;9.116;2022-08-21T07:24:27;4.80;;;3.40;;
7573;SDS011;3828;48.922;9.116;2022-08-21T07:26:55;4.10;;;2.70;;
7573;SDS011;3828;48.922;9.116;2022-08-21T07:29:21;4.27;;;3.00;;
7573;SDS011;3828;48.922;9.116;2022-08-21T07:31:48;6.13;;;2.70;;
7573;SDS011;3828;48.922;9.116;2022-08-21T07:34:15;3.60;;;3.30;;
7573;SDS011;3828;48.922;9.116;2022-08-21T07:36:42;5.53;;;3.20;;
7573;SDS011;3828;48.922;9.116;2022-08-21T07:39:09;5.17;;;3.43;;
7573;SDS011;3828;48.922;9.116;2022-08-21T07:41:37;4.10;;;3.00;;
7573;SDS011;3828;48.922;9.116;2022-08-21T07:44:03;5.33;;;3.10;;
7573;SDS011;3828;48.922;9.116;2022-08-21T07:46:30;8.40;;;3.50;;
7573;SDS011;3828;48.922;9.116;2022-08-21T07:48:57;5.33;;;2.67;;
7573;SDS011;3828;48.922;9.116;2022-08-21T07:51:25;3.27;;;2.60;;
7573;SDS011;3828;48.922;9.116;2022-08-21T07:53:56;4.33;;;3.13;;
7573;SDS011;3828;48.922;9.116;2022-08-21T07:56:24;3.97;;;2.77;;
7573;SDS011;3828;48.922;9.116;2022-08-21T07:58:52;5.43;;;3.03;;
7573;SDS011;3828;48.922;9.116;2022-08-21T08:01:20;3.60;;;2.53;;
7573;SDS011;3828;48.922;9.116;2022-08-21T08:03:48;3.93;;;3.20;;
7573;SDS011;3828;48.922;9.116;2022-08-21T08:06:17;4.73;;;2.77;;
7573;SDS011;3828;48.922;9.116;2022-08-21T08:08:44;3.77;;;2.57;;
7573;SDS011;3828;48.922;9.116;2022-08-21T08:11:11;5.20;;;3.73;;
7573;SDS011;3828;48.922;9.116;2022-08-21T08:13:40;6.93;;;3.50;;
7573;SDS011;3828;48.922;9.116;2022-08-21T08:16:09;5.37;;;3.20;;
7573;SDS011;3828;48.922;9.116;2022-08-21T08:18:36;7.33;;;3.57;;
7573;SDS011;3828;48.922;9.116;2022-08-21T08:21:04;5.13;;;2.53;;
7573;SDS011;3828;48.922;9.116;2022-08-21T08:23:31;6.13;;;3.00;;
7573;SDS011;3828;48.922;9.116;2022-08-21T08:25:58;4.13;;;2.60;;
7573;SDS011;3828;48.922;9.116;2022-08-21T08:28:27;10.93;;;3.10;;
7573;SDS011;3828;48.922;9.116;2022-08-21T08:30:54;4.17;;;2.80;;
7573;SDS011;3828;48.922;9.116;2022-08-21T08:33:22;5.00;;;2.90;;
7573;SDS011;3828;48.922;9.116;2022-08-21T08:35:50;3.13;;;2.83;;
7573;SDS011;3828;48.922;9.116;2022-08-21T08:38:18;5.53;;;3.03;;
7573;SDS011;3828;48.922;9.116;2022-08-21T08:40:47;7.40;;;3.57;;
7573;SDS011;3828;48.922;9.116;2022-08-21T08:43:21;5.73;;;3.70;;
7573;SDS011;3828;48.922;9.116;2022-08-21T08:45:48;6.47;;;3.60;;
7573;SDS011;3828;48.922;9.116;2022-08-21T08:48:25;5.77;;;3.10;;
7573;SDS011;3828;48.922;9.116;2022-08-21T08:51:02;5.70;;;3.30;;
7573;SDS011;3828;48.922;9.116;2022-08-21T08:53:36;5.27;;;3.57;;
7573;SDS011;3828;48.922;9.116;2022-08-21T08:56:12;5.03;;;2.90;;
7573;SDS011;3828;48.922;9.116;2022-08-21T08:58:40;3.90;;;3.30;;
7573;SDS011;3828;48.922;9.116;2022-08-21T09:01:12;5.97;;;3.03;;
7573;SDS011;3828;48.922;9.116;2022-08-21T09:03:44;5.50;;;3.47;;
7573;SDS011;3828;48.922;9.116;2022-08-21T09:06:18;4.33;;;3.67;;
7573;SDS011;3828;48.922;9.116;2022-08-21T09:08:58;3.07;;;2.60;;
7573;SDS011;3828;48.922;9.116;2022-08-21T09:11:35;5.27;;;2.97;;
7573;SDS011;3828;48.922;9.116;2022-08-21T09:14:09;5.33;;;2.97;;
7573;SDS011;3828;48.922;9.116;2022-08-21T09:16:44;4.50;;;3.30;;
7573;SDS011;3828;48.922;9.116;2022-08-21T09:19:22;3.57;;;2.93;;
7573;SDS011;3828;48.922;9.116;2022-08-21T09:22:02;3.43;;;3.13;;
7573;SDS011;3828;48.922;9.116;2022-08-21T09:24:43;5.73;;;3.33;;
7573;SDS011;3828;48.922;9.116;2022-08-21T09:27:16;4.23;;;3.67;;
7573;SDS011;3828;48.922;9.116;2022-08-21T09:29:45;6.33;;;3.53;;
7573;SDS011;3828;48.922;9.116;2022-08-21T09:32:16;4.27;;;3.00;;
7573;SDS011;3828;48.922;9.116;2022-08-21T09:34:56;5.50;;;3.50;;
7573;SDS011;3828;48.922;9.116;2022-08-21T09:37:25;4.30;;;3.23;;
7573;SDS011;3828;48.922;9.116;2022-08-21T09:39:54;6.37;;;3.40;;
7573;SDS011;3828;48.922;9.116;2022-08-21T09:42:23;5.00;;;3.27;;
7573;SDS011;3828;48.922;9.116;2022-08-21T09:45:05;6.80;;;3.10;;
7573;SDS011;3828;48.922;9.116;2022-08-21T09:47:35;4.43;;;2.77;;
7573;SDS011;3828;48.922;9.116;2022-08-21T09:50:14;5.30;;;2.70;;
7573;SDS011;3828;48.922;9.116;2022-08-21T09:52:44;7.37;;;3.57;;
7573;SDS011;3828;48.922;9.116;2022-08-21T09:55:19;11.37;;;3.10;;
7573;SDS011;3828;48.922;9.116;2022-08-21T09:58:06;4.53;;;3.30;;
7573;SDS011;3828;48.922;9.116;2022-08-21T10:00:33;6.13;;;2.40;;
7573;SDS011;3828;48.922;9.116;2022-08-21T10:03:11;6.37;;;2.70;;
7573;SDS011;3828;48.922;9.116;2022-08-21T10:05:51;4.83;;;2.93;;
7573;SDS011;3828;48.922;9.116;2022-08-21T10:08:20;4.80;;;2.73;;
7573;SDS011;3828;48.922;9.116;2022-08-21T10:10:50;5.17;;;2.93;;
7573;SDS011;3828;48.922;9.116;2022-08-21T10:13:21;5.87;;;3.10;;
7573;SDS011;3828;48.922;9.116;2022-08-21T10:16:03;6.73;;;2.60;;
7573;SDS011;3828;48.922;9.116;2022-08-21T10:18:39;5.20;;;2.90;;
7573;SDS011;3828;48.922;9.116;2022-08-21T10:21:13;4.07;;;2.17;;
7573;SDS011;3828;48.922;9.116;2022-08-21T10:23:51;4.97;;;2.70;;
7573;SDS011;3828;48.922;9.116;2022-08-21T10:26:30;10.53;;;2.70;;
7573;SDS011;3828;48.922;9.116;2022-08-21T10:29:04;4.40;;;2.70;;
7573;SDS011;3828;48.922;9.116;2022-08-21T10:31:39;5.30;;;3.90;;
7573;SDS011;3828;48.922;9.116;2022-08-21T10:34:17;5.00;;;2.40;;
7573;SDS011;3828;48.922;9.116;2022-08-21T10:36:56;3.10;;;2.40;;
7573;SDS011;3828;48.922;9.116;2022-08-21T10:39:33;4.67;;;2.20;;
7573;SDS011;3828;48.922;9.116;2022-08-21T10:44:49;5.33;;;2.80;;
7573;SDS011;3828;48.922;9.116;2022-08-21T10:47:24;4.83;;;2.43;;
7573;SDS011;3828;48.922;9.116;2022-08-21T10:50:00;3.80;;;2.57;;
7573;SDS011;3828;48.922;9.116;2022-08-21T10:52:46;5.23;;;2.57;;
7573;SDS011;3828;48.922;9.116;2022-08-21T10:55:31;3.80;;;2.13;;
7573;SDS011;3828;48.922;9.116;2022-08-21T10:58:02;4.10;;;2.10;;
7573;SDS011;3828;48.922;9.116;2022-08-21T11:00:35;4.03;;;2.47;;
7573;SDS011;3828;48.922;9.116;2022-08-21T11:03:07;3.30;;;2.40;;
7573;SDS011;3828;48.922;9.116;2022-08-21T11:05:39;3.17;;;1.87;;
7573;SDS011;3828;48.922;9.116;2022-08-21T11:08:10;4.10;;;2.10;;
7573;SDS011;3828;48.922;9.116;2022-08-21T11:10:40;4.10;;;2.27;;
7573;SDS011;3828;48.922;9.116;2022-08-21T11:13:14;5.00;;;2.13;;
7573;SDS011;3828;48.922;9.116;2022-08-21T11:15:48;2.67;;;2.43;;
7573;SDS011;3828;48.922;9.116;2022-08-21T11:18:21;5.73;;;2.20;;
7573;SDS011;3828;48.922;9.116;2022-08-21T11:20:56;5.40;;;2.40;;
7573;SDS011;3828;48.922;9.116;2022-08-21T11:23:31;5.53;;;2.73;;
7573;SDS011;3828;48.922;9.116;2022-08-21T11:26:05;2.97;;;1.90;;
7573;SDS011;3828;48.922;9.116;2022-08-21T11:28:39;3.03;;;2.00;;
7573;SDS011;3828;48.922;9.116;2022-08-21T11:31:14;4.13;;;2.40;;
7573;SDS011;3828;48.922;9.116;2022-08-21T11:33:54;4.10;;;2.10;;
7573;SDS011;3828;48.922;9.116;2022-08-21T11:36:32;3.50;;;1.88;;
7573;SDS011;3828;48.922;9.116;2022-08-21T11:39:13;3.85;;;2.33;;
7573;SDS011;3828;48.922;9.116;2022-08-21T11:41:46;4.03;;;1.90;;
7573;SDS011;3828;48.922;9.116;2022-08-21T11:44:23;5.47;;;2.22;;
7573;SDS011;3828;48.922;9.116;2022-08-21T11:47:00;3.13;;;2.20;;
7573;SDS011;3828;48.922;9.116;2022-08-21T11:49:35;2.90;;;2.03;;
7573;SDS011;3828;48.922;9.116;2022-08-21T11:52:14;4.82;;;2.65;;
7573;SDS011;3828;48.922;9.116;2022-08-21T11:54:48;3.55;;;2.05;;
7573;SDS011;3828;48.922;9.116;2022-08-21T11:57:21;2.92;;;1.80;;
7573;SDS011;3828;48.922;9.116;2022-08-21T11:59:52;3.92;;;2.10;;
7573;SDS011;3828;48.922;9.116;2022-08-21T12:02:21;3.00;;;2.37;;
7573;SDS011;3828;48.922;9.116;2022-08-21T12:04:52;4.13;;;1.83;;
7573;SDS011;3828;48.922;9.116;2022-08-21T12:07:29;2.80;;;1.77;;
7573;SDS011;3828;48.922;9.116;2022-08-21T12:10:01;2.50;;;2.05;;
7573;SDS011;3828;48.922;9.116;2022-08-21T12:12:31;2.77;;;2.07;;
7573;SDS011;3828;48.922;9.116;2022-08-21T12:15:13;2.20;;;1.83;;
7573;SDS011;3828;48.922;9.116;2022-08-21T12:17:56;3.13;;;1.83;;
7573;SDS011;3828;48.922;9.116;2022-08-21T12:20:37;2.10;;;1.77;;
7573;SDS011;3828;48.922;9.116;2022-08-21T12:23:15;2.55;;;2.03;;
7573;SDS011;3828;48.922;9.116;2022-08-21T12:28:43;2.72;;;2.00;;
7573;SDS011;3828;48.922;9.116;2022-08-21T12:31:20;2.88;;;1.90;;
7573;SDS011;3828;48.922;9.116;2022-08-21T12:33:54;2.25;;;1.70;;
7573;SDS011;3828;48.922;9.116;2022-08-21T12:36:23;2.88;;;1.90;;
7573;SDS011;3828;48.922;9.116;2022-08-21T12:38:52;2.88;;;1.90;;
7573;SDS011;3828;48.922;9.116;2022-08-21T12:41:24;2.50;;;2.15;;
7573;SDS011;3828;48.922;9.116;2022-08-21T12:43:56;4.65;;;1.80;;
7573;SDS011;3828;48.922;9.116;2022-08-21T12:46:27;3.00;;;1.80;;
7573;SDS011;3828;48.922;9.116;2022-08-21T12:49:13;3.73;;;2.20;;
7573;SDS011;3828;48.922;9.116;2022-08-21T12:51:48;3.87;;;2.10;;
7573;SDS011;3828;48.922;9.116;2022-08-21T12:54:24;2.85;;;2.20;;
7573;SDS011;3828;48.922;9.116;2022-08-21T12:56:58;2.95;;;2.03;;
7573;SDS011;3828;48.922;9.116;2022-08-21T12:59:27;4.45;;;2.25;;
7573;SDS011;3828;48.922;9.116;2022-08-21T13:01:55;3.58;;;1.70;;
7573;SDS011;3828;48.922;9.116;2022-08-21T13:04:26;3.97;;;1.77;;
7573;SDS011;3828;48.922;9.116;2022-08-21T13:07:04;2.22;;;1.92;;
7573;SDS011;3828;48.922;9.116;2022-08-21T13:09:32;3.55;;;1.90;;
7573;SDS011;3828;48.922;9.116;2022-08-21T13:12:01;2.63;;;1.95;;
7573;SDS011;3828;48.922;9.116;2022-08-21T13:14:29;2.78;;;1.92;;
7573;SDS011;3828;48.922;9.116;2022-08-21T13:17:00;2.78;;;1.90;;
7573;SDS011;3828;48.922;9.116;2022-08-21T13:19:30;2.00;;;1.83;;
7573;SDS011;3828;48.922;9.116;2022-08-21T13:21:58;3.95;;;2.20;;
7573;SDS011;3828;48.922;9.116;2022-08-21T13:24:26;2.55;;;2.15;;
7573;SDS011;3828;48.922;9.116;2022-08-21T13:26:54;2.63;;;1.98;;
7573;SDS011;3828;48.922;9.116;2022-08-21T13:29:26;1.60;;;1.50;;
7573;SDS011;3828;48.922;9.116;2022-08-21T13:31:56;2.42;;;2.05;;
7573;SDS011;3828;48.922;9.116;2022-08-21T13:34:26;3.15;;;2.10;;
7573;SDS011;3828;48.922;9.116;2022-08-21T13:36:57;4.70;;;2.33;;
7573;SDS011;3828;48.922;9.116;2022-08-21T13:39:26;3.43;;;1.70;;
7573;SDS011;3828;48.922;9.116;2022-08-21T13:41:54;2.70;;;2.20;;
7573;SDS011;3828;48.922;9.116;2022-08-21T13:44:24;1.97;;;1.70;;
7573;SDS011;3828;48.922;9.116;2022-08-21T13:47:01;3.73;;;1.93;;
7573;SDS011;3828;48.922;9.116;2022-08-21T13:49:30;8.73;;;2.17;;
7573;SDS011;3828;48.922;9.116;2022-08-21T13:51:59;3.47;;;2.30;;
7573;SDS011;3828;48.922;9.116;2022-08-21T13:54:27;2.13;;;1.90;;
7573;SDS011;3828;48.922;9.116;2022-08-21T13:57:00;3.42;;;2.22;;
7573;SDS011;3828;48.922;9.116;2022-08-21T13:59:30;3.45;;;2.00;;
7573;SDS011;3828;48.922;9.116;2022-08-21T14:01:58;2.00;;;1.90;;
7573;SDS011;3828;48.922;9.116;2022-08-21T14:04:31;2.35;;;2.13;;
7573;SDS011;3828;48.922;9.116;2022-08-21T14:07:00;2.90;;;2.30;;
7573;SDS011;3828;48.922;9.116;2022-08-21T14:09:29;2.42;;;1.90;;
7573;SDS011;3828;48.922;9.116;2022-08-21T14:12:00;2.20;;;2.00;;
7573;SDS011;3828;48.922;9.116;2022-08-21T14:14:32;3.13;;;2.20;;
7573;SDS011;3828;48.922;9.116;2022-08-21T14:17:02;2.22;;;2.05;;
7573;SDS011;3828;48.922;9.116;2022-08-21T14:19:36;3.53;;;2.38;;
7573;SDS011;3828;48.922;9.116;2022-08-21T14:22:27;3.17;;;2.13;;
7573;SDS011;3828;48.922;9.116;2022-08-21T14:25:00;3.28;;;2.22;;
7573;SDS011;3828;48.922;9.116;2022-08-21T14:27:29;2.90;;;2.33;;
7573;SDS011;3828;48.922;9.116;2022-08-21T14:29:59;3.85;;;2.13;;
7573;SDS011;3828;48.922;9.116;2022-08-21T14:32:28;3.58;;;2.30;;
7573;SDS011;3828;48.922;9.116;2022-08-21T14:35:01;3.88;;;2.60;;
7573;SDS011;3828;48.922;9.116;2022-08-21T14:37:28;2.28;;;1.95;;
7573;SDS011;3828;48.922;9.116;2022-08-21T14:39:54;3.72;;;1.80;;
7573;SDS011;3828;48.922;9.116;2022-08-21T14:42:21;2.35;;;1.80;;
7573;SDS011;3828;48.922;9.116;2022-08-21T14:44:48;3.58;;;2.10;;
7573;SDS011;3828;48.922;9.116;2022-08-21T14:47:17;2.53;;;2.00;;
7573;SDS011;3828;48.922;9.116;2022-08-21T14:49:44;2.50;;;2.05;;
7573;SDS011;3828;48.922;9.116;2022-08-21T14:52:11;2.50;;;2.00;;
7573;SDS011;3828;48.922;9.116;2022-08-21T14:54:38;2.53;;;2.10;;
7573;SDS011;3828;48.922;9.116;2022-08-21T14:57:06;3.35;;;1.95;;
7573;SDS011;3828;48.922;9.116;2022-08-21T14:59:34;3.15;;;2.17;;
7573;SDS011;3828;48.922;9.116;2022-08-21T15:02:03;4.47;;;2.25;;
7573;SDS011;3828;48.922;9.116;2022-08-21T15:04:31;3.03;;;1.98;;
7573;SDS011;3828;48.922;9.116;2022-08-21T15:06:59;3.80;;;2.20;;
7573;SDS011;3828;48.922;9.116;2022-08-21T15:09:27;3.55;;;2.17;;
7573;SDS011;3828;48.922;9.116;2022-08-21T15:11:55;3.28;;;2.58;;
7573;SDS011;3828;48.922;9.116;2022-08-21T15:14:27;6.40;;;2.72;;
7573;SDS011;3828;48.922;9.116;2022-08-21T15:16:56;2.38;;;2.17;;
7573;SDS011;3828;48.922;9.116;2022-08-21T15:19:23;2.50;;;2.03;;
7573;SDS011;3828;48.922;9.116;2022-08-21T15:21:51;3.80;;;2.70;;
7573;SDS011;3828;48.922;9.116;2022-08-21T15:24:18;4.80;;;2.10;;
7573;SDS011;3828;48.922;9.116;2022-08-21T15:26:45;3.53;;;2.37;;
7573;SDS011;3828;48.922;9.116;2022-08-21T15:29:13;4.10;;;2.33;;
7573;SDS011;3828;48.922;9.116;2022-08-21T15:31:49;2.43;;;2.20;;
7573;SDS011;3828;48.922;9.116;2022-08-21T15:34:18;6.30;;;2.53;;
7573;SDS011;3828;48.922;9.116;2022-08-21T15:36:45;5.27;;;2.23;;